Time;durP1;ratioP1;P1;durP2;ratioP2;P2;SDS_P1;SDS_P2;PMS_P1;PMS_P2;Temp;Humidity;BMP_temperature;BMP_pressure;BME280_temperature;BME280_humidity;BME280_pressure;Samples;Min_cycle;Max_cycle;Signal;HPM_P1;HPM_P2
2021/06/07 00:00:22;;;;;;;15.27;10.15;;;;;;;;;;3583945;40;20156;-63
2021/06/07 00:02:48;;;;;;;12.70;11.18;;;;;;;;;;3584988;40;20270;-62
2021/06/07 00:05:15;;;;;;;12.13;10.82;;;;;;;;;;3582731;40;20051;-63
2021/06/07 00:07:40;;;;;;;12.43;10.82;;;;;;;;;;3583797;40;20084;-63
2021/06/07 00:10:11;;;;;;;15.00;10.93;;;;;;;;;;3586237;40;20058;-62
2021/06/07 00:12:37;;;;;;;14.00;10.80;;;;;;;;;;3585386;40;20045;-63
2021/06/07 00:15:07;;;;;;;12.80;10.82;;;;;;;;;;3582808;40;20368;-63
2021/06/07 00:17:32;;;;;;;10.70;9.52;;;;;;;;;;3583366;40;20033;-63
2021/06/07 00:19:57;;;;;;;11.40;10.20;;;;;;;;;;3584053;40;20025;-63
2021/06/07 00:22:23;;;;;;;14.57;10.40;;;;;;;;;;3584900;40;20080;-63
2021/06/07 00:24:48;;;;;;;11.82;10.10;;;;;;;;;;3573983;40;20044;-62
2021/06/07 00:27:14;;;;;;;11.90;10.68;;;;;;;;;;3582512;40;20036;-62
2021/06/07 00:29:39;;;;;;;10.80;9.65;;;;;;;;;;3585599;40;20035;-63
2021/06/07 00:32:05;;;;;;;13.60;10.45;;;;;;;;;;3584142;40;20036;-63
2021/06/07 00:34:31;;;;;;;11.77;10.57;;;;;;;;;;3583411;40;20249;-63
2021/06/07 00:36:56;;;;;;;11.88;10.68;;;;;;;;;;3584621;40;20061;-63
2021/06/07 00:39:22;;;;;;;11.13;9.73;;;;;;;;;;3585227;40;20401;-63
2021/06/07 00:41:49;;;;;;;15.73;11.75;;;;;;;;;;3583498;40;20051;-63
2021/06/07 00:44:21;;;;;;;12.10;10.77;;;;;;;;;;3582871;40;20372;-63
2021/06/07 00:46:48;;;;;;;12.18;10.77;;;;;;;;;;3583883;40;20383;-63
2021/06/07 00:49:14;;;;;;;11.57;10.38;;;;;;;;;;3585776;40;20052;-63
2021/06/07 00:51:42;;;;;;;13.23;10.65;;;;;;;;;;3584365;40;20040;-63
2021/06/07 00:54:09;;;;;;;12.13;10.82;;;;;;;;;;3585356;40;20099;-63
2021/06/07 00:56:34;;;;;;;14.40;11.43;;;;;;;;;;3585661;40;20041;-63
2021/06/07 00:59:00;;;;;;;14.18;11.68;;;;;;;;;;3585809;40;20072;-63
2021/06/07 01:01:27;;;;;;;13.25;11.80;;;;;;;;;;3585473;40;20040;-63
2021/06/07 01:03:57;;;;;;;13.50;12.10;;;;;;;;;;3584104;40;20091;-63
2021/06/07 01:06:23;;;;;;;16.65;12.15;;;;;;;;;;3584592;40;20029;-63
2021/06/07 01:08:49;;;;;;;13.40;11.48;;;;;;;;;;3584647;40;20036;-63
2021/06/07 01:11:16;;;;;;;18.88;12.20;;;;;;;;;;3585332;40;20041;-63
2021/06/07 01:13:43;;;;;;;13.68;11.63;;;;;;;;;;3585100;40;20048;-63
2021/06/07 01:16:09;;;;;;;12.90;11.57;;;;;;;;;;3583741;40;20303;-63
2021/06/07 01:18:37;;;;;;;15.00;12.88;;;;;;;;;;3584052;39;20037;-63
2021/06/07 01:21:08;;;;;;;15.82;12.55;;;;;;;;;;3584060;40;20510;-63
2021/06/07 01:23:35;;;;;;;18.67;14.38;;;;;;;;;;3585378;40;20126;-63
2021/06/07 01:26:03;;;;;;;13.63;12.23;;;;;;;;;;3583474;40;20029;-63
2021/06/07 01:28:30;;;;;;;15.98;13.88;;;;;;;;;;3585119;40;20029;-63
2021/06/07 01:30:56;;;;;;;15.68;13.98;;;;;;;;;;3585668;40;20255;-63
2021/06/07 01:33:24;;;;;;;16.13;14.43;;;;;;;;;;3585735;40;20057;-64
2021/06/07 01:35:53;;;;;;;15.98;14.13;;;;;;;;;;3581929;40;20059;-65
2021/06/07 01:38:18;;;;;;;17.80;14.18;;;;;;;;;;3585600;40;20041;-64
2021/06/07 01:40:49;;;;;;;16.88;15.02;;;;;;;;;;3586080;40;20047;-63
2021/06/07 01:43:15;;;;;;;17.42;15.55;;;;;;;;;;3586246;40;20033;-63
2021/06/07 01:45:46;;;;;;;20.52;15.13;;;;;;;;;;3584065;40;20043;-63
2021/06/07 01:48:14;;;;;;;16.98;15.27;;;;;;;;;;3584522;40;20048;-62
2021/06/07 01:50:41;;;;;;;18.65;16.13;;;;;;;;;;3587279;40;20032;-63
2021/06/07 01:53:08;;;;;;;18.85;15.20;;;;;;;;;;3585048;40;20051;-63
2021/06/07 01:55:43;;;;;;;16.83;15.05;;;;;;;;;;3585386;40;20037;-63
2021/06/07 01:58:10;;;;;;;15.80;14.13;;;;;;;;;;3585400;40;20032;-63
2021/06/07 02:00:54;;;;;;;15.95;13.77;;;;;;;;;;3577006;40;20033;-63
2021/06/07 02:03:21;;;;;;;17.23;14.48;;;;;;;;;;3584410;40;20040;-62
2021/06/07 02:05:51;;;;;;;15.65;14.18;;;;;;;;;;3582877;40;20048;-62
2021/06/07 02:08:18;;;;;;;15.43;13.73;;;;;;;;;;3586874;40;20043;-63
2021/06/07 02:10:47;;;;;;;16.05;13.43;;;;;;;;;;3581586;40;20047;-64
2021/06/07 02:13:14;;;;;;;18.27;14.02;;;;;;;;;;3582954;40;20074;-62
2021/06/07 02:15:40;;;;;;;15.10;13.52;;;;;;;;;;3583251;40;20041;-63
2021/06/07 02:18:07;;;;;;;16.58;14.25;;;;;;;;;;3586185;40;20041;-62
2021/06/07 02:20:34;;;;;;;15.93;14.43;;;;;;;;;;3586185;40;20516;-62
2021/06/07 02:23:00;;;;;;;16.75;13.48;;;;;;;;;;3587686;40;20056;-62
2021/06/07 02:25:26;;;;;;;15.35;13.18;;;;;;;;;;3586978;40;20039;-62
2021/06/07 02:27:52;;;;;;;15.57;13.43;;;;;;;;;;3586558;40;20346;-62
2021/06/07 02:30:22;;;;;;;14.55;13.05;;;;;;;;;;3586889;40;20106;-62
2021/06/07 02:32:48;;;;;;;;;;;;;;;;;;3587492;40;20044;-63
2021/06/07 02:35:17;;;;;;;13.50;11.85;;;;;;;;;;3586491;40;20044;-62
2021/06/07 02:37:44;;;;;;;18.20;13.20;;;;;;;;;;3576830;40;20060;-63
2021/06/07 02:40:12;;;;;;;14.95;13.35;;;;;;;;;;3585893;40;20037;-63
2021/06/07 02:42:38;;;;;;;13.13;11.93;;;;;;;;;;3586170;39;20309;-63
2021/06/07 02:45:07;;;;;;;13.77;12.38;;;;;;;;;;3585421;40;20036;-63
2021/06/07 02:47:32;;;;;;;15.68;12.68;;;;;;;;;;3584236;40;20029;-63
2021/06/07 02:49:58;;;;;;;13.95;12.43;;;;;;;;;;3584943;40;20300;-63
2021/06/07 02:52:23;;;;;;;16.55;11.55;;;;;;;;;;3586014;40;20028;-63
2021/06/07 02:54:49;;;;;;;14.02;10.55;;;;;;;;;;3583469;40;20036;-63
2021/06/07 02:57:15;;;;;;;13.63;12.00;;;;;;;;;;3584804;39;20036;-64
2021/06/07 02:59:40;;;;;;;11.90;10.68;;;;;;;;;;3585149;40;20028;-64
2021/06/07 03:02:06;;;;;;;12.90;11.48;;;;;;;;;;3586210;40;20029;-64
2021/06/07 03:04:31;;;;;;;12.73;11.43;;;;;;;;;;3584432;40;20044;-64
2021/06/07 03:06:56;;;;;;;11.90;10.20;;;;;;;;;;3583958;40;20040;-64
2021/06/07 03:09:22;;;;;;;12.27;10.98;;;;;;;;;;3584469;40;20082;-64
2021/06/07 03:11:47;;;;;;;11.27;9.75;;;;;;;;;;3585726;40;20028;-64
2021/06/07 03:14:13;;;;;;;10.20;8.98;;;;;;;;;;3585694;40;20036;-65
2021/06/07 03:16:38;;;;;;;12.65;10.05;;;;;;;;;;3577872;40;20041;-65
2021/06/07 03:19:04;;;;;;;10.30;9.30;;;;;;;;;;3584798;40;20028;-65
2021/06/07 03:21:29;;;;;;;10.50;8.98;;;;;;;;;;3586873;40;20128;-65
2021/06/07 03:23:55;;;;;;;10.50;8.50;;;;;;;;;;3583578;40;20064;-65
2021/06/07 03:26:21;;;;;;;9.85;8.40;;;;;;;;;;3584092;40;20049;-65
2021/06/07 03:28:46;;;;;;;9.32;8.30;;;;;;;;;;3585057;40;20156;-65
2021/06/07 03:31:12;;;;;;;9.80;8.05;;;;;;;;;;3585064;40;20048;-65
2021/06/07 03:33:37;;;;;;;11.15;8.23;;;;;;;;;;3584977;40;20047;-65
2021/06/07 03:36:04;;;;;;;10.35;8.68;;;;;;;;;;3584053;40;20087;-65
2021/06/07 03:38:31;;;;;;;9.57;8.32;;;;;;;;;;3585647;40;20356;-65
2021/06/07 03:40:58;;;;;;;8.75;7.75;;;;;;;;;;3584592;40;20060;-65
2021/06/07 03:43:27;;;;;;;8.13;7.30;;;;;;;;;;3585898;40;20060;-65
2021/06/07 03:45:52;;;;;;;10.13;7.18;;;;;;;;;;3583317;40;20031;-65
2021/06/07 03:48:18;;;;;;;9.18;8.27;;;;;;;;;;3585520;40;20036;-65
2021/06/07 03:50:44;;;;;;;11.02;8.27;;;;;;;;;;3585962;40;20028;-64
2021/06/07 03:53:10;;;;;;;8.02;7.22;;;;;;;;;;3585959;40;20028;-63
2021/06/07 03:55:37;;;;;;;9.82;8.23;;;;;;;;;;3586153;40;20036;-63
2021/06/07 03:58:03;;;;;;;11.30;8.02;;;;;;;;;;3584817;40;20356;-63
2021/06/07 04:00:31;;;;;;;11.88;8.73;;;;;;;;;;3586191;40;20040;-62
2021/06/07 04:02:57;;;;;;;11.15;9.43;;;;;;;;;;3584810;40;20034;-63
2021/06/07 04:05:22;;;;;;;12.40;10.52;;;;;;;;;;3587350;40;20035;-63
2021/06/07 04:07:48;;;;;;;12.95;9.32;;;;;;;;;;3585458;40;20267;-63
2021/06/07 04:10:17;;;;;;;12.85;11.13;;;;;;;;;;3585419;40;20036;-63
2021/06/07 04:12:43;;;;;;;13.60;11.23;;;;;;;;;;3585878;40;20386;-63
2021/06/07 04:15:10;;;;;;;12.35;11.05;;;;;;;;;;3585224;40;20037;-63
2021/06/07 04:17:37;;;;;;;14.88;11.65;;;;;;;;;;3584813;40;20032;-63
2021/06/07 04:20:05;;;;;;;13.38;10.32;;;;;;;;;;3583939;40;20045;-63
2021/06/07 04:22:30;;;;;;;16.73;11.90;;;;;;;;;;3584457;40;20029;-62
2021/06/07 04:24:56;;;;;;;12.55;11.25;;;;;;;;;;3583756;40;20205;-62
2021/06/07 04:27:21;;;;;;;13.90;11.38;;;;;;;;;;3584238;40;20048;-62
2021/06/07 04:29:48;;;;;;;14.25;12.15;;;;;;;;;;3584014;40;20093;-62
2021/06/07 04:32:13;;;;;;;15.20;12.38;;;;;;;;;;3585620;40;20029;-62
2021/06/07 04:34:39;;;;;;;14.55;12.98;;;;;;;;;;3583442;40;20438;-62
2021/06/07 04:37:05;;;;;;;14.90;12.02;;;;;;;;;;3584057;40;20040;-62
2021/06/07 04:39:31;;;;;;;18.90;12.55;;;;;;;;;;3584248;40;20456;-62
2021/06/07 04:41:56;;;;;;;15.52;12.40;;;;;;;;;;3585541;40;20130;-62
2021/06/07 04:44:22;;;;;;;17.88;12.63;;;;;;;;;;3583965;40;20041;-62
2021/06/07 04:46:48;;;;;;;13.68;11.90;;;;;;;;;;3583806;40;20265;-62
2021/06/07 04:49:13;;;;;;;15.13;12.55;;;;;;;;;;3583718;40;20040;-62
2021/06/07 04:51:38;;;;;;;13.75;10.73;;;;;;;;;;3584757;40;20137;-62
2021/06/07 04:54:05;;;;;;;15.10;12.90;;;;;;;;;;3582422;40;20057;-62
2021/06/07 04:56:31;;;;;;;13.15;11.52;;;;;;;;;;3582877;40;20025;-62
2021/06/07 04:58:56;;;;;;;13.82;12.43;;;;;;;;;;3583585;40;20065;-63
2021/06/07 05:01:22;;;;;;;13.93;11.15;;;;;;;;;;3584566;40;20037;-62
2021/06/07 05:03:47;;;;;;;19.15;13.13;;;;;;;;;;3583550;40;20460;-62
2021/06/07 05:06:12;;;;;;;17.15;13.55;;;;;;;;;;3583143;40;20032;-62
2021/06/07 05:08:38;;;;;;;14.55;12.65;;;;;;;;;;3585214;40;20040;-62
2021/06/07 05:11:03;;;;;;;13.95;12.48;;;;;;;;;;3583561;40;20029;-62
2021/06/07 05:13:29;;;;;;;22.83;14.43;;;;;;;;;;3583958;40;20033;-61
2021/06/07 05:15:56;;;;;;;16.80;13.90;;;;;;;;;;3582138;40;20040;-62
2021/06/07 05:18:21;;;;;;;20.75;13.20;;;;;;;;;;3584559;40;20115;-61
2021/06/07 05:20:47;;;;;;;14.90;12.88;;;;;;;;;;3575339;40;20029;-62
2021/06/07 05:23:14;;;;;;;16.48;14.07;;;;;;;;;;3586976;39;20036;-62
2021/06/07 05:25:41;;;;;;;15.35;13.77;;;;;;;;;;3585824;40;20048;-62
2021/06/07 05:28:09;;;;;;;16.52;12.85;;;;;;;;;;3585168;40;20068;-62
2021/06/07 05:30:36;;;;;;;16.05;13.88;;;;;;;;;;3585046;40;20029;-61
2021/06/07 05:33:02;;;;;;;15.18;12.85;;;;;;;;;;3584859;40;20496;-62
2021/06/07 05:35:30;;;;;;;17.33;13.63;;;;;;;;;;3585253;40;20025;-61
2021/06/07 05:37:57;;;;;;;19.60;14.70;;;;;;;;;;3584442;40;20060;-62
2021/06/07 05:40:24;;;;;;;15.98;13.45;;;;;;;;;;3585391;40;20063;-61
2021/06/07 05:42:49;;;;;;;16.08;14.18;;;;;;;;;;3585269;40;20073;-61
2021/06/07 05:45:15;;;;;;;18.30;14.38;;;;;;;;;;3583509;40;20563;-60
2021/06/07 05:47:41;;;;;;;16.80;15.00;;;;;;;;;;3583637;40;20073;-60
2021/06/07 05:50:13;;;;;;;19.42;14.93;;;;;;;;;;3583642;40;20045;-60
2021/06/07 05:52:45;;;;;;;18.27;15.13;;;;;;;;;;3584694;40;20090;-60
2021/06/07 05:55:31;;;;;;;18.10;15.43;;;;;;;;;;3583634;40;20048;-61
2021/06/07 05:58:00;;;;;;;18.95;15.02;;;;;;;;;;3582963;40;20059;-61
2021/06/07 06:00:28;;;;;;;22.92;14.77;;;;;;;;;;3584068;40;20383;-60
2021/06/07 06:02:54;;;;;;;17.35;15.55;;;;;;;;;;3584605;40;20033;-60
2021/06/07 06:05:20;;;;;;;17.67;15.48;;;;;;;;;;3583027;40;20039;-60
2021/06/07 06:07:46;;;;;;;20.13;15.23;;;;;;;;;;3575655;40;20049;-61
2021/06/07 06:10:13;;;;;;;19.80;16.17;;;;;;;;;;3584011;40;20052;-61
2021/06/07 06:12:39;;;;;;;18.13;15.52;;;;;;;;;;3584729;40;20141;-61
2021/06/07 06:15:08;;;;;;;16.92;15.13;;;;;;;;;;3584918;40;20037;-61
2021/06/07 06:17:33;;;;;;;15.85;14.25;;;;;;;;;;3583988;40;20097;-61
2021/06/07 06:19:59;;;;;;;15.68;14.07;;;;;;;;;;3576236;40;20025;-60
2021/06/07 06:22:24;;;;;;;16.85;14.57;;;;;;;;;;3578468;40;20043;-60
2021/06/07 06:24:50;;;;;;;18.20;15.45;;;;;;;;;;3584120;40;20049;-61
2021/06/07 06:27:16;;;;;;;17.02;14.30;;;;;;;;;;3585231;40;20033;-61
2021/06/07 06:29:42;;;;;;;18.55;15.10;;;;;;;;;;3587375;40;20044;-61
2021/06/07 06:32:09;;;;;;;16.67;14.48;;;;;;;;;;3577154;40;20040;-61
2021/06/07 06:34:35;;;;;;;19.70;16.00;;;;;;;;;;3578360;40;20028;-60
2021/06/07 06:37:01;;;;;;;18.23;15.02;;;;;;;;;;3585448;40;20319;-60
2021/06/07 06:39:26;;;;;;;17.95;15.27;;;;;;;;;;3586031;40;20051;-60
2021/06/07 06:41:52;;;;;;;16.88;15.07;;;;;;;;;;3584195;40;20434;-60
2021/06/07 06:44:17;;;;;;;18.98;14.65;;;;;;;;;;3582811;40;20130;-60
2021/06/07 06:46:43;;;;;;;16.30;14.18;;;;;;;;;;3585103;40;20057;-60
2021/06/07 06:49:09;;;;;;;20.17;15.52;;;;;;;;;;3586209;40;20049;-60
2021/06/07 06:51:34;;;;;;;17.70;15.77;;;;;;;;;;3584229;40;20109;-60
2021/06/07 06:54:00;;;;;;;17.70;14.70;;;;;;;;;;3582828;40;20125;-60
2021/06/07 06:56:25;;;;;;;19.83;16.05;;;;;;;;;;3587721;40;20214;-60
2021/06/07 06:58:51;;;;;;;17.48;15.48;;;;;;;;;;3577613;40;20037;-60
2021/06/07 07:01:17;;;;;;;16.48;14.77;;;;;;;;;;3585548;40;20159;-60
2021/06/07 07:03:43;;;;;;;17.00;15.20;;;;;;;;;;3585100;40;20075;-60
2021/06/07 07:06:09;;;;;;;17.23;15.35;;;;;;;;;;3587207;40;20281;-60
2021/06/07 07:08:35;;;;;;;21.17;16.02;;;;;;;;;;3587032;40;20110;-60
2021/06/07 07:11:00;;;;;;;19.58;16.10;;;;;;;;;;3586161;40;20033;-61
2021/06/07 07:13:25;;;;;;;20.65;16.27;;;;;;;;;;3586023;40;20040;-61
2021/06/07 07:15:51;;;;;;;17.58;15.68;;;;;;;;;;3585034;40;20036;-61
2021/06/07 07:18:16;;;;;;;17.05;15.27;;;;;;;;;;3584688;40;20028;-61
2021/06/07 07:20:42;;;;;;;16.98;14.63;;;;;;;;;;3586201;40;20048;-62
2021/06/07 07:23:08;;;;;;;17.33;15.32;;;;;;;;;;3585334;40;20045;-62
2021/06/07 07:25:35;;;;;;;23.02;17.15;;;;;;;;;;3583897;40;20037;-62
2021/06/07 07:28:01;;;;;;;19.70;16.27;;;;;;;;;;3586281;40;20025;-62
2021/06/07 07:30:27;;;;;;;18.02;16.13;;;;;;;;;;3585883;40;20038;-62
2021/06/07 07:32:54;;;;;;;17.27;15.23;;;;;;;;;;3585495;40;20032;-62
2021/06/07 07:35:20;;;;;;;17.30;15.15;;;;;;;;;;3582775;40;20580;-62
2021/06/07 07:37:46;;;;;;;23.55;15.68;;;;;;;;;;3577180;40;20032;-62
2021/06/07 07:40:15;;;;;;;17.88;15.07;;;;;;;;;;3586188;40;20043;-62
2021/06/07 07:42:41;;;;;;;18.05;15.65;;;;;;;;;;3584504;40;20500;-62
2021/06/07 07:45:08;;;;;;;16.92;14.73;;;;;;;;;;3583224;40;20122;-62
2021/06/07 07:47:34;;;;;;;23.13;16.48;;;;;;;;;;3584176;40;20041;-62
2021/06/07 07:50:00;;;;;;;18.27;15.07;;;;;;;;;;3585469;40;20044;-62
2021/06/07 07:52:25;;;;;;;20.23;16.23;;;;;;;;;;3586083;40;20079;-62
2021/06/07 07:54:55;;;;;;;22.20;16.98;;;;;;;;;;3583212;40;20029;-63
2021/06/07 07:57:21;;;;;;;17.73;15.82;;;;;;;;;;3584818;40;20032;-60
2021/06/07 07:59:47;;;;;;;22.60;18.08;;;;;;;;;;3586918;40;20275;-62
2021/06/07 08:02:12;;;;;;;20.02;17.50;;;;;;;;;;3584467;40;20029;-60
2021/06/07 08:04:38;;;;;;;19.90;17.77;;;;;;;;;;3584482;40;20537;-61
2021/06/07 08:07:04;;;;;;;19.48;17.23;;;;;;;;;;3584096;40;20028;-61
2021/06/07 08:09:31;;;;;;;18.65;16.67;;;;;;;;;;3586302;40;20039;-62
2021/06/07 08:12:00;;;;;;;18.42;16.55;;;;;;;;;;3582888;40;20436;-62
2021/06/07 08:14:26;;;;;;;19.05;16.95;;;;;;;;;;3583624;40;20040;-61
2021/06/07 08:16:52;;;;;;;27.13;17.42;;;;;;;;;;3573829;40;20068;-61
2021/06/07 08:19:18;;;;;;;19.60;17.52;;;;;;;;;;3584898;40;20522;-61
2021/06/07 08:21:43;;;;;;;19.25;17.25;;;;;;;;;;3583301;40;20096;-61
2021/06/07 08:24:09;;;;;;;27.60;17.02;;;;;;;;;;3582035;40;20105;-61
2021/06/07 08:26:34;;;;;;;21.15;17.63;;;;;;;;;;3587085;40;20076;-61
2021/06/07 08:29:00;;;;;;;20.30;17.85;;;;;;;;;;3586496;40;20028;-61
2021/06/07 08:31:26;;;;;;;18.38;16.42;;;;;;;;;;3584339;40;20547;-62
2021/06/07 08:33:52;;;;;;;22.90;17.85;;;;;;;;;;3584100;40;20286;-62
2021/06/07 08:36:17;;;;;;;23.17;18.63;;;;;;;;;;3586070;40;20036;-63
2021/06/07 08:38:43;;;;;;;20.33;17.77;;;;;;;;;;3586217;40;20048;-62
2021/06/07 08:41:09;;;;;;;20.40;18.27;;;;;;;;;;3586013;40;20059;-62
2021/06/07 08:43:35;;;;;;;24.23;18.30;;;;;;;;;;3586382;40;20028;-62
2021/06/07 08:46:01;;;;;;;24.92;19.35;;;;;;;;;;3585662;40;20339;-62
2021/06/07 08:48:26;;;;;;;20.80;18.48;;;;;;;;;;3585784;40;20049;-62
2021/06/07 08:50:52;;;;;;;23.00;18.77;;;;;;;;;;3584881;40;20040;-62
2021/06/07 08:53:18;;;;;;;20.00;17.60;;;;;;;;;;3585139;40;20044;-62
2021/06/07 08:55:44;;;;;;;24.85;17.65;;;;;;;;;;3583648;40;20116;-62
2021/06/07 08:58:10;;;;;;;22.88;17.98;;;;;;;;;;3583183;40;20037;-62
2021/06/07 09:00:42;;;;;;;20.83;18.63;;;;;;;;;;3585540;40;20264;-62
2021/06/07 09:03:14;;;;;;;21.30;18.20;;;;;;;;;;3576287;40;20273;-62
2021/06/07 09:05:41;;;;;;;21.45;18.15;;;;;;;;;;3583624;40;20048;-62
2021/06/07 09:08:09;;;;;;;22.13;18.92;;;;;;;;;;3574968;40;20246;-62
2021/06/07 09:10:49;;;;;;;21.50;17.95;;;;;;;;;;3583367;40;21138;-62
2021/06/07 09:13:16;;;;;;;25.55;19.55;;;;;;;;;;3582586;40;20260;-62
2021/06/07 09:15:53;;;;;;;22.38;18.70;;;;;;;;;;3583408;40;20044;-62
2021/06/07 09:18:35;;;;;;;20.35;18.15;;;;;;;;;;3583702;40;20520;-62
2021/06/07 09:21:11;;;;;;;19.35;17.17;;;;;;;;;;3584784;40;20273;-62
2021/06/07 09:23:42;;;;;;;24.10;19.00;;;;;;;;;;3584162;40;20045;-62
2021/06/07 09:26:32;;;;;;;20.35;17.80;;;;;;;;;;3573836;40;20067;-62
2021/06/07 09:29:03;;;;;;;22.15;18.67;;;;;;;;;;3585273;40;20236;-62
2021/06/07 09:31:44;;;;;;;19.90;17.25;;;;;;;;;;3584121;40;20520;-62
2021/06/07 09:34:11;;;;;;;22.30;18.55;;;;;;;;;;3583194;40;20142;-62
2021/06/07 09:36:39;;;;;;;23.55;17.80;;;;;;;;;;3583041;40;20044;-62
2021/06/07 09:39:25;;;;;;;19.80;17.70;;;;;;;;;;3584743;40;20095;-63
2021/06/07 09:41:57;;;;;;;19.65;17.20;;;;;;;;;;3582000;40;20040;-63
2021/06/07 09:44:33;;;;;;;19.73;17.55;;;;;;;;;;3582150;40;20056;-62
2021/06/07 09:47:32;;;;;;;19.45;17.25;;;;;;;;;;3585367;40;20335;-62
2021/06/07 09:50:05;;;;;;;17.90;16.13;;;;;;;;;;3584407;40;20039;-62
2021/06/07 09:52:45;;;;;;;19.42;17.33;;;;;;;;;;3583099;40;20503;-62
2021/06/07 09:55:27;;;;;;;19.45;17.33;;;;;;;;;;3585520;40;20029;-63
2021/06/07 09:57:58;;;;;;;17.88;16.08;;;;;;;;;;3586959;40;20036;-63
2021/06/07 10:00:48;;;;;;;23.77;18.02;;;;;;;;;;3587883;40;20139;-62
2021/06/07 10:03:27;;;;;;;18.10;15.88;;;;;;;;;;3587664;40;20045;-63
2021/06/07 10:05:59;;;;;;;21.70;16.40;;;;;;;;;;3584773;40;20056;-63
2021/06/07 10:08:26;;;;;;;19.55;15.60;;;;;;;;;;3586737;40;20037;-63
2021/06/07 10:10:54;;;;;;;18.52;15.98;;;;;;;;;;3586969;40;20719;-63
2021/06/07 10:13:20;;;;;;;19.05;16.67;;;;;;;;;;3587037;40;20029;-62
2021/06/07 10:15:48;;;;;;;64.30;58.00;;;;;;;;;;3584690;40;20029;-63
2021/06/07 10:18:19;;;;;;;25.58;16.50;;;;;;;;;;3586084;40;20047;-63
2021/06/07 10:20:51;;;;;;;;;;;;;;;;;;3587769;40;20118;-62
2021/06/07 10:23:25;;;;;;;17.58;15.73;;;;;;;;;;3585532;40;19943;-63
2021/06/07 10:25:53;;;;;;;22.08;16.13;;;;;;;;;;3584340;40;20036;-62
2021/06/07 10:28:31;;;;;;;18.30;15.88;;;;;;;;;;3586837;40;20033;-62
2021/06/07 10:30:58;;;;;;;17.42;14.60;;;;;;;;;;3585719;40;20040;-62
2021/06/07 10:33:35;;;;;;;16.80;15.07;;;;;;;;;;3581079;40;20380;-62
2021/06/07 10:36:19;;;;;;;17.58;14.48;;;;;;;;;;3583868;40;20033;-63
2021/06/07 10:38:45;;;;;;;20.60;14.52;;;;;;;;;;3586414;40;20036;-62
2021/06/07 10:41:22;;;;;;;17.17;14.90;;;;;;;;;;3577617;40;20081;-63
2021/06/07 10:43:50;;;;;;;16.10;14.38;;;;;;;;;;3583974;40;20044;-62
2021/06/07 10:46:24;;;;;;;17.40;14.60;;;;;;;;;;3584894;39;20045;-62
2021/06/07 10:48:51;;;;;;;16.30;14.68;;;;;;;;;;3579063;40;20084;-63
2021/06/07 10:51:19;;;;;;;17.63;15.07;;;;;;;;;;3584358;40;20367;-62
2021/06/07 10:53:45;;;;;;;17.83;14.10;;;;;;;;;;3584511;40;20036;-62
2021/06/07 10:56:11;;;;;;;17.70;14.50;;;;;;;;;;3583948;40;20368;-62
2021/06/07 10:58:49;;;;;;;25.77;14.60;;;;;;;;;;3584639;40;20550;-63
2021/06/07 11:01:15;;;;;;;17.30;15.02;;;;;;;;;;3584101;40;20033;-62
2021/06/07 11:04:00;;;;;;;18.25;13.57;;;;;;;;;;3583552;40;20441;-63
2021/06/07 11:06:27;;;;;;;17.17;14.23;;;;;;;;;;3586695;40;20135;-62
2021/06/07 11:09:08;;;;;;;16.30;14.60;;;;;;;;;;3576436;40;20073;-63
2021/06/07 11:11:40;;;;;;;;;;;;;;;;;;3585276;40;20061;-62
2021/06/07 11:14:06;;;;;;;16.77;14.15;;;;;;;;;;3583026;40;20352;-62
2021/06/07 11:16:38;;;;;;;15.63;13.35;;;;;;;;;;3587069;40;20044;-63
2021/06/07 11:19:09;;;;;;;20.45;14.18;;;;;;;;;;3585485;40;20064;-62
2021/06/07 11:21:35;;;;;;;13.95;12.45;;;;;;;;;;3583580;40;20052;-63
2021/06/07 11:24:21;;;;;;;19.88;13.38;;;;;;;;;;3584127;39;20488;-62
2021/06/07 11:26:46;;;;;;;15.02;13.27;;;;;;;;;;3584912;40;20048;-62
2021/06/07 11:29:14;;;;;;;20.45;12.85;;;;;;;;;;3583929;40;20041;-61
2021/06/07 11:32:06;;;;;;;14.05;12.52;;;;;;;;;;3586342;40;20044;-62
2021/06/07 11:34:49;;;;;;;16.63;14.27;;;;;;;;;;3580230;40;20036;-62
2021/06/07 11:37:17;;;;;;;14.60;13.13;;;;;;;;;;3584821;40;20827;-62
2021/06/07 11:39:42;;;;;;;14.43;13.13;;;;;;;;;;3586239;40;20036;-62
2021/06/07 11:42:09;;;;;;;15.93;14.30;;;;;;;;;;3577875;40;20137;-62
2021/06/07 11:47:49;;;;;;;13.82;12.40;;;;;;;;;;3576396;40;20183;-62
2021/06/07 11:50:19;;;;;;;13.85;12.38;;;;;;;;;;3585404;40;20181;-62
2021/06/07 11:52:51;;;;;;;16.48;13.18;;;;;;;;;;3586274;40;20044;-62
2021/06/07 11:55:53;;;;;;;13.63;12.30;;;;;;;;;;3585295;40;20134;-62
2021/06/07 11:58:23;;;;;;;14.57;12.55;;;;;;;;;;3564975;40;20049;-62
2021/06/07 12:00:57;;;;;;;14.10;12.70;;;;;;;;;;3585566;40;20044;-62
2021/06/07 12:03:25;;;;;;;13.95;11.57;;;;;;;;;;3584388;40;20412;-62
2021/06/07 12:05:50;;;;;;;16.10;12.73;;;;;;;;;;3584054;40;20033;-63
2021/06/07 12:08:18;;;;;;;14.32;12.70;;;;;;;;;;3584914;40;20076;-62
2021/06/07 12:10:50;;;;;;;13.65;12.23;;;;;;;;;;3585502;40;20145;-62
2021/06/07 12:13:21;;;;;;;13.52;12.07;;;;;;;;;;3582983;40;20048;-62
2021/06/07 12:15:52;;;;;;;13.43;11.95;;;;;;;;;;3584090;40;20398;-62
2021/06/07 12:18:50;;;;;;;13.15;11.45;;;;;;;;;;3585330;40;20076;-62
2021/06/07 12:21:30;;;;;;;15.07;11.15;;;;;;;;;;3575277;40;20048;-62
2021/06/07 12:24:08;;;;;;;18.25;12.60;;;;;;;;;;3581570;40;20040;-62
2021/06/07 12:29:26;;;;;;;16.13;11.68;;;;;;;;;;3586423;40;20118;-59
2021/06/07 12:32:17;;;;;;;12.88;10.95;;;;;;;;;;3585068;40;20067;-60
2021/06/07 12:35:16;;;;;;;13.35;11.85;;;;;;;;;;3580640;40;20063;-60
2021/06/07 12:37:49;;;;;;;13.60;12.13;;;;;;;;;;3585792;40;20054;-61
2021/06/07 12:40:20;;;;;;;14.50;11.27;;;;;;;;;;3583726;40;20032;-61
2021/06/07 12:42:50;;;;;;;12.35;10.73;;;;;;;;;;3582184;40;20379;-62
2021/06/07 12:45:21;;;;;;;12.93;11.20;;;;;;;;;;3583236;40;20042;-62
2021/06/07 12:47:47;;;;;;;13.00;11.70;;;;;;;;;;3584445;40;20040;-62
2021/06/07 12:50:22;;;;;;;12.70;11.43;;;;;;;;;;3582867;40;20060;-62
2021/06/07 12:52:51;;;;;;;14.15;12.23;;;;;;;;;;3580822;40;20037;-62
2021/06/07 12:55:19;;;;;;;11.23;10.18;;;;;;;;;;3586020;40;20303;-61
2021/06/07 12:57:45;;;;;;;14.43;11.32;;;;;;;;;;3584197;40;20313;-62
2021/06/07 13:00:24;;;;;;;12.07;10.82;;;;;;;;;;3583524;40;20033;-62
2021/06/07 13:02:49;;;;;;;12.57;11.02;;;;;;;;;;3585630;40;20037;-62
2021/06/07 13:05:30;;;;;;;13.25;11.32;;;;;;;;;;3584949;40;20051;-62
2021/06/07 13:08:21;;;;;;;13.05;11.55;;;;;;;;;;3584767;40;20043;-64
2021/06/07 13:11:04;;;;;;;15.40;11.55;;;;;;;;;;3586242;40;20045;-62
2021/06/07 13:13:36;;;;;;;13.25;10.88;;;;;;;;;;3585971;40;20036;-61
2021/06/07 13:16:04;;;;;;;13.30;10.27;;;;;;;;;;3585199;40;20036;-62
2021/06/07 13:18:30;;;;;;;11.85;10.65;;;;;;;;;;3584777;40;20035;-61
2021/06/07 13:21:07;;;;;;;11.10;10.00;;;;;;;;;;3582450;40;20041;-63
2021/06/07 13:23:40;;;;;;;11.32;10.20;;;;;;;;;;3582871;40;20080;-62
2021/06/07 13:26:21;;;;;;;11.88;10.68;;;;;;;;;;3585791;40;20040;-62
2021/06/07 13:28:46;;;;;;;;;;;;;;;;;;3575621;40;20076;-63
2021/06/07 13:31:12;;;;;;;11.88;10.68;;;;;;;;;;3585295;40;19950;-63
2021/06/07 13:33:40;;;;;;;13.75;10.45;;;;;;;;;;3584650;40;20040;-62
2021/06/07 13:36:07;;;;;;;11.57;10.38;;;;;;;;;;3584713;40;20454;-62
2021/06/07 13:38:35;;;;;;;13.00;10.75;;;;;;;;;;3584634;40;20305;-62
2021/06/07 13:41:09;;;;;;;11.27;9.93;;;;;;;;;;3586242;40;20040;-63
2021/06/07 13:43:34;;;;;;;12.63;10.07;;;;;;;;;;3583461;40;20049;-62
2021/06/07 13:46:01;;;;;;;16.50;10.27;;;;;;;;;;3584853;39;20126;-61
2021/06/07 13:48:33;;;;;;;11.23;10.02;;;;;;;;;;3586140;40;20044;-62
2021/06/07 13:51:00;;;;;;;11.48;10.20;;;;;;;;;;3585496;40;20036;-62
2021/06/07 13:53:32;;;;;;;11.00;9.88;;;;;;;;;;3583822;40;20048;-62
2021/06/07 13:56:00;;;;;;;11.57;9.95;;;;;;;;;;3584564;40;20414;-62
2021/06/07 13:58:40;;;;;;;11.05;9.82;;;;;;;;;;3587645;40;20313;-62
2021/06/07 14:01:05;;;;;;;11.98;10.77;;;;;;;;;;3585041;40;20033;-62
2021/06/07 14:03:33;;;;;;;10.35;9.35;;;;;;;;;;3583921;40;20037;-62
2021/06/07 14:06:00;;;;;;;10.15;8.75;;;;;;;;;;3585129;40;20063;-62
2021/06/07 14:08:29;;;;;;;11.55;10.23;;;;;;;;;;3585969;40;20129;-62
2021/06/07 14:10:57;;;;;;;14.88;9.90;;;;;;;;;;3583925;40;20048;-62
2021/06/07 14:13:22;;;;;;;12.43;9.43;;;;;;;;;;3583911;40;20043;-62
2021/06/07 14:15:49;;;;;;;10.32;9.32;;;;;;;;;;3586930;40;20036;-62
2021/06/07 14:18:14;;;;;;;10.23;9.27;;;;;;;;;;3583330;40;20052;-62
2021/06/07 14:20:45;;;;;;;10.63;9.30;;;;;;;;;;3586054;40;20056;-62
2021/06/07 14:26:09;;;;;;;9.68;8.68;;;;;;;;;;3584776;40;20032;-63
2021/06/07 14:28:35;;;;;;;10.07;9.18;;;;;;;;;;3585348;40;20028;-63
2021/06/07 14:31:01;;;;;;;10.32;9.20;;;;;;;;;;3583749;40;20055;-63
2021/06/07 14:33:26;;;;;;;12.63;9.98;;;;;;;;;;3584452;40;20052;-63
2021/06/07 14:35:52;;;;;;;12.05;9.68;;;;;;;;;;3586851;40;20041;-62
2021/06/07 14:38:17;;;;;;;12.75;9.18;;;;;;;;;;3586683;40;20028;-63